Time;durP1;ratioP1;P1;durP2;ratioP2;P2;SDS_P1;SDS_P2;PMS_P1;PMS_P2;Temp;Humidity;BMP_temperature;BMP_pressure;BME280_temperature;BME280_humidity;BME280_pressure;Samples;Min_cycle;Max_cycle;Signal;HPM_P1;HPM_P2
2021/04/05 00:00:10;;;;;;;55.92;13.48;;;6.30;99.90;;;;;;10481699;28;20068;-71
2021/04/05 00:05:16;;;;;;;64.90;13.02;;;6.30;99.90;;;;;;10487183;28;20100;-71
2021/04/05 00:10:22;;;;;;;60.58;12.38;;;6.30;99.90;;;;;;10480692;28;20059;-72
2021/04/05 00:15:23;;;;;;;51.35;13.13;;;6.30;99.90;;;;;;10483426;28;20087;-71
2021/04/05 00:20:43;;;;;;;60.03;13.27;;;6.30;99.90;;;;;;10484764;28;20107;-71
2021/04/05 00:25:45;;;;;;;56.03;10.93;;;6.40;99.90;;;;;;10481307;28;20385;-73
2021/04/05 00:30:46;;;;;;;61.00;12.75;;;6.50;99.90;;;;;;10482339;28;20522;-71
2021/04/05 00:35:50;;;;;;;59.45;11.85;;;6.60;99.90;;;;;;10484534;28;20117;-73
2021/04/05 00:40:53;;;;;;;;;;;6.60;99.90;;;;;;10483053;28;20699;-72
2021/04/05 00:45:54;;;;;;;62.70;10.82;;;6.60;99.90;;;;;;10480616;28;19916;-72
2021/04/05 00:50:59;;;;;;;58.60;10.55;;;6.50;99.90;;;;;;10481716;28;20139;-72
2021/04/05 00:56:00;;;;;;;52.10;11.90;;;6.40;99.90;;;;;;10480775;28;20072;-72
2021/04/05 01:01:06;;;;;;;53.33;14.90;;;6.50;99.90;;;;;;10477229;28;20037;-71
2021/04/05 01:06:12;;;;;;;52.58;12.02;;;6.70;99.90;;;;;;10476866;28;20071;-71
2021/04/05 01:11:15;;;;;;;51.92;12.93;;;7.00;99.90;;;;;;10478040;28;20488;-72
2021/04/05 01:16:17;;;;;;;68.63;13.82;;;7.30;99.90;;;;;;10484280;28;20041;-71
2021/04/05 01:21:19;;;;;;;43.78;12.10;;;7.30;99.90;;;;;;10482239;28;20231;-70
2021/04/05 01:26:22;;;;;;;58.03;15.77;;;7.30;99.90;;;;;;10482785;28;20064;-71
2021/04/05 01:31:23;;;;;;;54.17;15.50;;;7.30;99.90;;;;;;10482942;28;20049;-71
2021/04/05 01:36:24;;;;;;;51.65;14.25;;;7.30;99.90;;;;;;10480551;28;20211;-71
2021/04/05 01:41:28;;;;;;;46.95;12.27;;;7.30;99.90;;;;;;10483233;28;20060;-72
2021/04/05 01:46:30;;;;;;;46.50;12.18;;;7.20;99.90;;;;;;10482341;28;20051;-72
2021/04/05 01:51:32;;;;;;;36.47;12.25;;;7.20;99.60;;;;;;10482813;28;20048;-71
2021/04/05 01:56:34;;;;;;;34.40;11.95;;;7.20;99.30;;;;;;10481620;28;20044;-71
2021/04/05 02:01:35;;;;;;;31.73;12.47;;;7.20;99.10;;;;;;10484351;28;20143;-72
2021/04/05 02:06:37;;;;;;;41.35;11.93;;;7.20;98.80;;;;;;10489225;28;20077;-72
2021/04/05 02:11:39;;;;;;;34.42;12.00;;;7.30;98.50;;;;;;10486115;28;20105;-72
2021/04/05 02:16:44;;;;;;;33.20;12.17;;;7.30;98.10;;;;;;10484822;28;20479;-71
2021/04/05 02:21:47;;;;;;;33.45;11.43;;;7.40;97.90;;;;;;10489037;28;20540;-71
2021/04/05 02:26:49;;;;;;;34.40;12.57;;;7.40;97.60;;;;;;10486669;28;20055;-74
2021/04/05 02:31:51;;;;;;;30.47;9.57;;;7.50;97.30;;;;;;10486643;28;20566;-72
2021/04/05 02:36:52;;;;;;;41.60;12.30;;;7.60;97.10;;;;;;10487048;28;20052;-71
2021/04/05 02:41:55;;;;;;;29.83;10.93;;;7.70;96.90;;;;;;10488581;28;20075;-70
2021/04/05 02:46:56;;;;;;;26.60;10.93;;;7.80;96.60;;;;;;10493942;28;20060;-71
2021/04/05 02:51:58;;;;;;;35.60;10.73;;;7.80;96.20;;;;;;10498676;28;20044;-71
2021/04/05 02:57:00;;;;;;;37.05;11.20;;;7.80;96.00;;;;;;10488927;28;20048;-71
2021/04/05 03:02:01;;;;;;;40.45;11.90;;;7.80;95.90;;;;;;10486342;28;20139;-71
2021/04/05 03:07:03;;;;;;;33.05;10.65;;;7.80;95.90;;;;;;10487857;28;20084;-71
2021/04/05 03:12:07;;;;;;;41.83;10.30;;;7.80;95.90;;;;;;10486190;28;20122;-71
2021/04/05 03:17:09;;;;;;;41.80;13.25;;;7.80;95.90;;;;;;10486285;28;20144;-71
2021/04/05 03:22:12;;;;;;;36.70;11.82;;;6.90;95.70;;;;;;10487472;28;20580;-71
2021/04/05 03:27:14;;;;;;;35.22;12.65;;;7.70;96.00;;;;;;10486032;28;20672;-72
2021/04/05 03:32:20;;;;;;;28.20;11.35;;;7.80;96.10;;;;;;10485256;28;20048;-71
2021/04/05 03:37:23;;;;;;;39.38;12.70;;;7.80;96.20;;;;;;10487699;28;20087;-71
2021/04/05 03:42:31;;;;;;;38.85;11.98;;;7.80;95.90;;;;;;10490645;28;20128;-72
2021/04/05 03:47:47;;;;;;;30.92;12.00;;;7.90;95.80;;;;;;10489775;28;20072;-71
2021/04/05 03:52:51;;;;;;;27.25;10.60;;;7.90;95.60;;;;;;10483714;28;20047;-72
2021/04/05 03:57:56;;;;;;;32.50;11.73;;;8.00;95.60;;;;;;10483353;28;20173;-71
2021/04/05 04:03:00;;;;;;;35.85;10.25;;;8.00;95.60;;;;;;10482859;28;20087;-70
2021/04/05 04:08:08;;;;;;;24.65;10.93;;;8.00;95.50;;;;;;10483849;28;20404;-70
2021/04/05 04:13:12;;;;;;;35.97;12.77;;;8.00;95.50;;;;;;10487400;28;20056;-71
2021/04/05 04:18:16;;;;;;;26.08;10.65;;;8.00;95.60;;;;;;10485427;28;20146;-70
2021/04/05 04:23:18;;;;;;;40.60;12.30;;;8.00;95.70;;;;;;10483849;28;20047;-71
2021/04/05 04:28:20;;;;;;;31.17;10.88;;;8.00;95.70;;;;;;10483855;28;20049;-73
2021/04/05 04:33:21;;;;;;;36.87;10.90;;;8.00;95.60;;;;;;10483758;28;20087;-71
2021/04/05 04:38:24;;;;;;;33.42;9.88;;;8.00;95.40;;;;;;10483736;28;20045;-71
2021/04/05 04:43:26;;;;;;;26.85;10.18;;;8.10;95.30;;;;;;10484731;28;20396;-70
2021/04/05 04:48:27;;;;;;;36.88;9.98;;;8.10;95.20;;;;;;10483846;28;20036;-72
2021/04/05 04:53:29;;;;;;;35.67;10.50;;;8.10;95.20;;;;;;10482348;28;20040;-71
2021/04/05 04:58:31;;;;;;;29.17;6.00;;;8.20;95.10;;;;;;10482444;28;20063;-71
2021/04/05 05:03:33;;;;;;;13.27;1.70;;;8.00;95.10;;;;;;10479794;28;21888;-71
2021/04/05 05:08:35;;;;;;;12.65;1.63;;;6.70;94.70;;;;;;10482303;28;20143;-71
2021/04/05 05:13:37;;;;;;;18.25;2.13;;;6.00;96.10;;;;;;10480783;28;20058;-72
2021/04/05 05:18:40;;;;;;;21.08;2.22;;;5.70;97.10;;;;;;10481243;28;20483;-71
2021/04/05 05:23:42;;;;;;;13.33;1.63;;;5.70;97.80;;;;;;10476040;28;20407;-71
2021/04/05 05:28:46;;;;;;;20.27;2.60;;;5.70;98.10;;;;;;10478644;28;20392;-71
2021/04/05 05:33:48;;;;;;;15.18;2.10;;;5.60;98.10;;;;;;10477404;28;20715;-71
2021/04/05 05:38:50;;;;;;;11.77;1.88;;;5.50;98.20;;;;;;10487970;28;20052;-69
2021/04/05 05:43:58;;;;;;;20.83;2.67;;;5.50;98.20;;;;;;10486481;28;20116;-71
2021/04/05 05:49:35;;;;;;;29.98;3.35;;;5.50;98.30;;;;;;10483985;28;20751;-71
2021/04/05 05:54:49;;;;;;;24.13;3.00;;;5.50;98.40;;;;;;10486764;28;20067;-72
2021/04/05 05:59:59;;;;;;;17.95;2.28;;;5.40;98.20;;;;;;10485159;28;20507;-71
2021/04/05 06:05:14;;;;;;;27.25;2.67;;;5.20;98.10;;;;;;10486152;28;20128;-71
2021/04/05 06:10:33;;;;;;;26.90;4.85;;;5.00;98.30;;;;;;10486520;28;20715;-72
2021/04/05 06:15:50;;;;;;;11.40;2.28;;;5.00;98.60;;;;;;10478508;28;20048;-71
2021/04/05 06:21:01;;;;;;;8.88;2.22;;;4.80;98.20;;;;;;10482063;28;20927;-71
2021/04/05 06:26:14;;;;;;;21.88;2.17;;;4.60;98.30;;;;;;10486424;28;20045;-70
2021/04/05 06:31:49;;;;;;;19.05;2.30;;;4.80;98.80;;;;;;10491412;28;20040;-70
2021/04/05 06:37:00;;;;;;;19.70;1.92;;;4.30;98.50;;;;;;10475340;28;20468;-71
2021/04/05 06:42:30;;;;;;;30.35;2.55;;;4.10;98.70;;;;;;10487048;28;20041;-71
2021/04/05 06:47:59;;;;;;;29.00;3.72;;;4.00;99.00;;;;;;10486965;28;20074;-70
2021/04/05 06:53:43;;;;;;;38.03;4.35;;;3.90;98.80;;;;;;10477268;28;20969;-70
2021/04/05 06:59:04;;;;;;;61.95;6.40;;;3.80;98.30;;;;;;10476810;28;20759;-70
2021/04/05 07:04:49;;;;;;;40.60;4.68;;;3.70;97.90;;;;;;10487018;28;20090;-69
2021/04/05 07:09:56;;;;;;;42.65;5.43;;;3.70;97.50;;;;;;10484035;28;20131;-70
2021/04/05 07:15:17;;;;;;;24.38;4.15;;;3.60;96.30;;;;;;10486916;28;20042;-71
2021/04/05 07:20:25;;;;;;;25.83;3.40;;;3.60;94.80;;;;;;10486157;28;20064;-71
2021/04/05 07:25:37;;;;;;;11.55;2.13;;;3.60;93.00;;;;;;10487958;28;20148;-71
2021/04/05 07:30:42;;;;;;;20.40;5.93;;;3.70;92.50;;;;;;10486562;28;20190;-70
2021/04/05 07:35:54;;;;;;;11.35;2.25;;;3.80;90.90;;;;;;10484317;28;20138;-71
2021/04/05 07:41:01;;;;;;;19.23;2.38;;;3.90;88.60;;;;;;10482896;28;20109;-70
2021/04/05 07:46:23;;;;;;;14.10;2.72;;;4.00;88.10;;;;;;10485042;28;20055;-71
2021/04/05 07:51:35;;;;;;;20.63;1.98;;;4.10;85.70;;;;;;10486801;28;20555;-70
2021/04/05 07:56:45;;;;;;;16.58;2.30;;;4.20;83.80;;;;;;10484756;28;20068;-72
2021/04/05 08:01:54;;;;;;;10.32;1.85;;;4.40;84.60;;;;;;10481979;28;20072;-71
2021/04/05 08:07:04;;;;;;;9.80;2.10;;;4.60;80.80;;;;;;10479606;28;20071;-70
2021/04/05 08:12:23;;;;;;;21.70;3.05;;;4.80;79.60;;;;;;10479693;28;20055;-71
2021/04/05 08:17:36;;;;;;;17.17;1.98;;;5.00;80.90;;;;;;10481305;28;20041;-70
2021/04/05 08:22:51;;;;;;;11.60;1.27;;;5.50;75.60;;;;;;10477855;28;20051;-71
2021/04/05 08:28:17;;;;;;;8.02;1.33;;;6.50;66.40;;;;;;10480062;28;20392;-71
2021/04/05 08:33:49;;;;;;;17.73;2.92;;;6.40;63.30;;;;;;10477451;28;20933;-72
2021/04/05 08:39:04;;;;;;;29.20;2.75;;;6.70;63.20;;;;;;10480667;28;20460;-71
2021/04/05 08:44:14;;;;;;;20.63;2.47;;;6.40;69.30;;;;;;10481021;28;20036;-71
2021/04/05 08:49:19;;;;;;;11.40;2.10;;;5.60;78.50;;;;;;10480531;28;20062;-70
2021/04/05 08:54:26;;;;;;;12.07;2.20;;;5.60;74.70;;;;;;10482243;28;20056;-70
2021/04/05 08:59:35;;;;;;;5.00;1.83;;;6.00;76.20;;;;;;10481945;28;20232;-71
2021/04/05 09:04:37;;;;;;;11.80;1.77;;;6.20;70.40;;;;;;10474170;28;20042;-71
2021/04/05 09:09:42;;;;;;;16.90;2.00;;;6.10;65.30;;;;;;10476374;28;20140;-69
2021/04/05 09:15:05;;;;;;;13.20;2.40;;;5.80;72.00;;;;;;10486773;28;20127;-73
2021/04/05 09:20:27;;;;;;;19.17;3.45;;;6.00;69.40;;;;;;10485323;28;20536;-73
2021/04/05 09:25:56;;;;;;;15.13;3.53;;;8.20;61.70;;;;;;10489004;28;20044;-71
2021/04/05 09:31:22;;;;;;;16.75;2.28;;;7.20;57.10;;;;;;10484566;28;20135;-71
2021/04/05 09:36:45;;;;;;;12.57;1.58;;;7.10;53.80;;;;;;10480665;28;20033;-70
2021/04/05 09:42:06;;;;;;;16.85;2.40;;;7.80;51.00;;;;;;10457348;28;20504;-70
2021/04/05 09:48:03;;;;;;;15.80;2.17;;;8.20;44.60;;;;;;10483354;28;20044;-74
2021/04/05 09:53:26;;;;;;;18.20;3.15;;;8.80;44.30;;;;;;10415126;28;20550;-72
2021/04/05 09:58:33;;;;;;;15.18;3.20;;;9.20;48.00;;;;;;10480283;28;20140;-69
2021/04/05 10:03:40;;;;;;;19.70;2.28;;;9.70;46.70;;;;;;10486006;28;20502;-69
2021/04/05 10:08:43;;;;;;;13.52;2.72;;;10.30;45.90;;;;;;10485238;28;20464;-71
2021/04/05 10:13:49;;;;;;;12.32;2.20;;;10.70;45.90;;;;;;10488701;28;20059;-70
2021/04/05 10:18:54;;;;;;;27.92;5.00;;;10.70;41.70;;;;;;10488613;28;20048;-70
2021/04/05 10:23:57;;;;;;;13.80;2.55;;;11.30;41.90;;;;;;10487071;28;20048;-69
2021/04/05 10:29:02;;;;;;;12.95;2.60;;;11.90;39.20;;;;;;10488727;28;20388;-68
2021/04/05 10:34:06;;;;;;;17.85;1.90;;;11.60;33.40;;;;;;10486120;28;20056;-68
2021/04/05 10:39:07;;;;;;;10.82;1.98;;;12.40;32.30;;;;;;10485641;28;20483;-69
2021/04/05 10:44:14;;;;;;;7.65;1.65;;;13.00;32.50;;;;;;10487997;28;20185;-68
2021/04/05 10:49:17;;;;;;;9.50;2.13;;;12.70;31.30;;;;;;10490857;28;21939;-70
2021/04/05 10:54:25;;;;;;;14.60;1.95;;;12.20;32.00;;;;;;10490923;28;20365;-69
2021/04/05 10:59:32;;;;;;;5.75;1.52;;;13.00;31.40;;;;;;10490273;28;20523;-70
2021/04/05 11:04:35;;;;;;;10.25;2.00;;;14.40;29.30;;;;;;10478496;28;20060;-69
2021/04/05 11:09:40;;;;;;;26.52;2.75;;;15.00;27.00;;;;;;10487133;28;20049;-72
2021/04/05 11:14:43;;;;;;;13.18;1.45;;;10.90;49.20;;;;;;10485842;28;20794;-70
2021/04/05 11:19:51;;;;;;;16.00;3.05;;;6.60;71.30;;;;;;10486295;28;20084;-69
2021/04/05 11:25:07;;;;;;;11.30;2.25;;;7.00;83.00;;;;;;10484463;28;20234;-69
2021/04/05 11:30:11;;;;;;;14.10;2.40;;;8.40;71.30;;;;;;10484129;28;20431;-76
2021/04/05 11:35:13;;;;;;;15.65;2.33;;;9.70;56.70;;;;;;10483422;28;20067;-70
2021/04/05 11:40:18;;;;;;;20.23;2.27;;;10.10;48.30;;;;;;10486477;28;20072;-69
2021/04/05 11:45:29;;;;;;;7.50;1.73;;;10.40;46.20;;;;;;10488064;28;20057;-70
2021/04/05 11:50:31;;;;;;;9.32;1.65;;;10.90;43.10;;;;;;10488071;28;20044;-68
2021/04/05 11:55:35;;;;;;;7.93;1.48;;;10.60;39.90;;;;;;10485122;28;20052;-69
2021/04/05 12:00:42;;;;;;;8.57;1.50;;;10.50;42.20;;;;;;10484742;28;20044;-68
2021/04/05 12:05:48;;;;;;;11.10;1.60;;;10.90;41.00;;;;;;10484086;28;20052;-66
2021/04/05 12:10:53;;;;;;;14.05;1.88;;;10.10;42.30;;;;;;10485729;28;20052;-70
2021/04/05 12:15:58;;;;;;;9.85;1.70;;;9.80;45.80;;;;;;10484874;28;20037;-67
2021/04/05 12:21:04;;;;;;;12.20;2.20;;;10.50;46.10;;;;;;10487079;28;20109;-68
2021/04/05 12:26:06;;;;;;;15.57;2.08;;;11.30;41.90;;;;;;10485449;28;20131;-67
2021/04/05 12:31:09;;;;;;;8.43;1.30;;;11.90;41.90;;;;;;10486159;28;20178;-68
2021/04/05 12:36:12;;;;;;;5.95;1.35;;;11.90;40.30;;;;;;10485077;28;20049;-67
2021/04/05 12:41:15;;;;;;;8.75;1.52;;;11.40;41.20;;;;;;10484555;28;20044;-67
2021/04/05 12:46:18;;;;;;;4.65;1.05;;;11.50;42.60;;;;;;10483195;28;20036;-69
2021/04/05 12:51:23;;;;;;;10.80;1.92;;;11.70;40.40;;;;;;10485497;28;20052;-68
2021/04/05 12:56:25;;;;;;;16.45;2.38;;;11.80;38.20;;;;;;10485151;28;20044;-70
2021/04/05 13:01:34;;;;;;;16.77;2.43;;;11.00;43.30;;;;;;10484505;28;20127;-68
2021/04/05 13:06:41;;;;;;;14.98;1.77;;;10.20;52.80;;;;;;10485172;28;20048;-70
2021/04/05 13:11:45;;;;;;;8.27;1.77;;;7.90;64.90;;;;;;10484053;28;20044;-70
2021/04/05 13:16:53;;;;;;;2.53;0.90;;;7.10;66.70;;;;;;10483572;28;20045;-67
2021/04/05 13:21:56;;;;;;;10.13;1.45;;;7.10;62.90;;;;;;10484133;28;20105;-67
2021/04/05 13:27:01;;;;;;;8.65;1.52;;;7.80;59.80;;;;;;10484062;28;20048;-67
2021/04/05 13:32:08;;;;;;;6.80;1.90;;;8.30;54.10;;;;;;10483371;28;20052;-67
2021/04/05 13:37:12;;;;;;;11.18;1.73;;;9.30;52.00;;;;;;10484548;28;20147;-68
2021/04/05 13:42:19;;;;;;;10.77;2.00;;;10.40;46.90;;;;;;10481570;28;20143;-68
2021/04/05 13:47:25;;;;;;;8.65;2.28;;;11.00;43.20;;;;;;10482633;28;20040;-70
2021/04/05 13:52:29;;;;;;;13.25;2.55;;;10.90;40.70;;;;;;10479888;28;20037;-68
2021/04/05 13:57:35;;;;;;;14.55;2.70;;;9.50;44.80;;;;;;10486321;28;20123;-67
2021/04/05 14:02:43;;;;;;;11.68;2.28;;;8.70;45.50;;;;;;10490929;28;20103;-67
2021/04/05 14:07:46;;;;;;;10.30;1.90;;;8.60;46.30;;;;;;10491322;28;20091;-67
2021/04/05 14:12:49;;;;;;;10.95;2.42;;;9.00;46.00;;;;;;10490704;28;20159;-68
2021/04/05 14:17:55;;;;;;;14.70;2.40;;;8.50;53.30;;;;;;10489478;28;20469;-68
2021/04/05 14:23:06;;;;;;;14.85;2.78;;;7.90;52.70;;;;;;10485799;28;20518;-69
2021/04/05 14:28:13;;;;;;;9.23;1.65;;;7.90;54.70;;;;;;10490936;28;20072;-70
2021/04/05 14:33:22;;;;;;;8.75;1.65;;;7.80;52.70;;;;;;10490667;28;20087;-69
2021/04/05 14:38:25;;;;;;;14.75;2.35;;;9.80;52.20;;;;;;10490202;28;20127;-69
2021/04/05 14:43:34;;;;;;;13.32;1.70;;;9.10;46.10;;;;;;10489439;28;20041;-69
2021/04/05 14:48:38;;;;;;;11.40;2.20;;;8.80;54.50;;;;;;10488332;28;20044;-68
2021/04/05 14:53:40;;;;;;;8.88;2.28;;;7.60;63.60;;;;;;10490143;28;20053;-69
2021/04/05 14:58:48;;;;;;;17.55;3.03;;;7.70;65.70;;;;;;10487804;28;20137;-70
2021/04/05 15:04:01;;;;;;;23.48;3.47;;;7.30;69.40;;;;;;10489923;28;20136;-69
2021/04/05 15:09:03;;;;;;;18.45;2.97;;;5.20;79.90;;;;;;10487478;28;20040;-69
2021/04/05 15:14:08;;;;;;;21.23;3.00;;;4.50;88.10;;;;;;10480070;28;20083;-68
2021/04/05 15:19:12;;;;;;;29.75;3.47;;;4.30;88.90;;;;;;10482997;28;20087;-68
2021/04/05 15:24:15;;;;;;;15.60;2.05;;;3.30;90.50;;;;;;10484028;28;20044;-68
2021/04/05 15:29:20;;;;;;;34.67;3.50;;;3.20;93.10;;;;;;10487494;28;20041;-68
2021/04/05 15:34:26;;;;;;;22.88;2.35;;;3.90;94.00;;;;;;10486702;28;20135;-72
2021/04/05 15:39:27;;;;;;;15.95;2.72;;;4.10;92.90;;;;;;10488209;28;20036;-69
2021/04/05 15:44:42;;;;;;;29.08;3.95;;;4.40;92.70;;;;;;10487070;28;20071;-69
2021/04/05 15:49:51;;;;;;;26.63;3.50;;;5.30;91.30;;;;;;10487323;28;20143;-70
2021/04/05 15:54:58;;;;;;;31.30;4.55;;;5.90;86.70;;;;;;10486912;28;20384;-69
2021/04/05 16:00:05;;;;;;;31.02;3.08;;;6.10;85.50;;;;;;10485063;28;20068;-70
2021/04/05 16:05:20;;;;;;;28.17;3.58;;;6.50;83.80;;;;;;10487417;28;20133;-69
2021/04/05 16:10:25;;;;;;;36.25;3.83;;;7.00;80.50;;;;;;10486246;28;20044;-69
2021/04/05 16:15:29;;;;;;;20.40;2.75;;;6.90;72.50;;;;;;10485808;28;20074;-69
2021/04/05 16:20:33;;;;;;;23.55;2.50;;;6.60;70.00;;;;;;10484979;28;20492;-69
2021/04/05 16:25:37;;;;;;;22.88;3.58;;;6.30;68.60;;;;;;10484442;28;20620;-69
2021/04/05 16:30:41;;;;;;;31.17;4.03;;;6.30;66.90;;;;;;10486167;28;20087;-69
2021/04/05 16:35:46;;;;;;;14.90;2.75;;;6.20;66.20;;;;;;10485977;28;20151;-71
2021/04/05 16:40:53;;;;;;;24.98;2.55;;;6.30;68.10;;;;;;10484826;28;20760;-70
2021/04/05 16:45:57;;;;;;;25.67;3.45;;;6.40;69.50;;;;;;10484386;28;20051;-69
2021/04/05 16:51:02;;;;;;;25.30;3.63;;;6.40;67.50;;;;;;10484391;28;20048;-70
2021/04/05 16:56:08;;;;;;;23.63;3.97;;;6.60;66.80;;;;;;10485754;28;20071;-67
2021/04/05 17:01:12;;;;;;;16.75;3.05;;;6.50;63.60;;;;;;10485702;28;20090;-71
2021/04/05 17:06:18;;;;;;;18.77;2.28;;;6.30;63.90;;;;;;10485238;28;20057;-70
2021/04/05 17:11:24;;;;;;;28.15;2.63;;;6.30;65.20;;;;;;10481048;28;20144;-68
2021/04/05 17:16:30;;;;;;;14.60;2.22;;;6.30;65.10;;;;;;10483513;28;20135;-68
2021/04/05 17:21:37;;;;;;;15.45;2.58;;;6.20;67.50;;;;;;10481896;28;20161;-67
2021/04/05 17:26:41;;;;;;;22.20;3.22;;;5.80;71.30;;;;;;10484220;28;20072;-70
2021/04/05 17:31:44;;;;;;;23.95;3.20;;;5.20;77.50;;;;;;10485763;28;20056;-68
2021/04/05 17:36:49;;;;;;;25.90;3.50;;;4.80;77.90;;;;;;10491099;28;20130;-70
2021/04/05 17:41:59;;;;;;;22.08;4.13;;;4.30;77.90;;;;;;10491285;28;20186;-70
2021/04/05 17:47:38;;;;;;;22.25;2.80;;;4.10;78.70;;;;;;10492023;28;20114;-70
2021/04/05 17:52:49;;;;;;;26.55;3.05;;;4.10;76.20;;;;;;10411842;28;20441;-71
2021/04/05 17:58:00;;;;;;;21.95;3.95;;;4.00;72.50;;;;;;10491383;28;20460;-68
2021/04/05 18:03:11;;;;;;;24.20;2.65;;;3.90;76.10;;;;;;10491837;28;20380;-68
2021/04/05 18:08:26;;;;;;;22.38;2.97;;;3.20;76.10;;;;;;10489661;28;20070;-67
2021/04/05 18:13:52;;;;;;;23.13;2.83;;;3.60;76.70;;;;;;10489946;28;20047;-67
2021/04/05 18:19:00;;;;;;;19.35;2.88;;;3.70;75.00;;;;;;10489423;28;20078;-66
2021/04/05 18:24:19;;;;;;;15.90;2.20;;;3.90;72.80;;;;;;10484169;28;20139;-66
2021/04/05 18:29:32;;;;;;;36.85;3.78;;;3.90;72.60;;;;;;10489932;28;20039;-68
2021/04/05 18:34:41;;;;;;;30.73;4.13;;;3.70;73.30;;;;;;10488293;28;20551;-69
2021/04/05 18:40:05;;;;;;;20.85;3.20;;;3.80;76.20;;;;;;10488667;28;20048;-69
2021/04/05 18:45:26;;;;;;;21.65;3.47;;;4.10;73.50;;;;;;10483694;28;20041;-67
2021/04/05 18:50:40;;;;;;;38.10;4.00;;;4.20;71.30;;;;;;10477849;28;20106;-68
2021/04/05 18:55:58;;;;;;;21.63;2.70;;;4.40;73.10;;;;;;10484413;28;20079;-68
2021/04/05 19:01:06;;;;;;;45.95;5.15;;;4.50;74.30;;;;;;10484716;28;20048;-66
2021/04/05 19:06:44;;;;;;;17.08;2.65;;;3.30;89.40;;;;;;10484014;28;20048;-69
2021/04/05 19:12:02;;;;;;;27.50;3.38;;;2.80;93.20;;;;;;10485821;28;20053;-70
2021/04/05 19:17:16;;;;;;;37.78;4.22;;;2.30;95.00;;;;;;10487821;28;20064;-69
2021/04/05 19:22:31;;;;;;;19.52;3.22;;;2.30;96.40;;;;;;10484449;28;20537;-70
2021/04/05 19:28:06;;;;;;;17.95;1.85;;;2.40;97.10;;;;;;10483420;28;20082;-70
2021/04/05 19:33:18;;;;;;;26.60;3.00;;;2.40;97.50;;;;;;10486503;28;20075;-70
2021/04/05 19:38:43;;;;;;;27.63;2.60;;;2.40;97.90;;;;;;10483473;28;20448;-70
2021/04/05 19:44:17;;;;;;;27.95;4.25;;;2.40;98.20;;;;;;10484428;28;20045;-69
2021/04/05 19:49:41;;;;;;;26.58;4.70;;;2.40;98.40;;;;;;10485023;28;20066;-69
2021/04/05 19:55:07;;;;;;;37.13;3.25;;;2.60;98.70;;;;;;10478857;28;20113;-68
2021/04/05 20:00:31;;;;;;;15.55;2.83;;;2.80;98.30;;;;;;10484881;28;20124;-69
2021/04/05 20:05:39;;;;;;;22.75;4.43;;;4.00;97.80;;;;;;10481068;28;20080;-69
2021/04/05 20:10:49;;;;;;;22.05;3.15;;;2.70;96.90;;;;;;10485362;28;20507;-68
2021/04/05 20:15:57;;;;;;;15.93;2.63;;;2.70;97.00;;;;;;10484435;28;20045;-68
2021/04/05 20:21:04;;;;;;;25.83;3.72;;;2.80;97.00;;;;;;10485200;28;20037;-69
2021/04/05 20:26:07;;;;;;;27.77;5.35;;;2.90;97.00;;;;;;10486980;28;20052;-69
2021/04/05 20:31:20;;;;;;;39.45;4.65;;;2.80;96.50;;;;;;10486657;28;20044;-69
2021/04/05 20:36:38;;;;;;;30.05;4.50;;;3.00;96.50;;;;;;10484712;28;20420;-71
2021/04/05 20:41:48;;;;;;;26.42;3.53;;;3.20;95.80;;;;;;10486133;28;20688;-69
2021/04/05 20:46:58;;;;;;;27.27;3.88;;;3.40;95.70;;;;;;10484527;28;20121;-68
2021/04/05 20:52:03;;;;;;;22.40;2.85;;;3.50;95.30;;;;;;10485595;28;20045;-69
2021/04/05 20:57:14;;;;;;;75.10;3.60;;;3.20;93.90;;;;;;10485992;28;20079;-72
2021/04/05 21:02:20;;;;;;;10.00;2.17;;;1.50;95.10;;;;;;10486626;28;20044;-74
2021/04/05 21:07:25;;;;;;;6.47;1.70;;;1.20;97.30;;;;;;10488782;28;20059;-75
2021/04/05 21:12:32;;;;;;;10.53;1.20;;;1.20;98.20;;;;;;10500035;28;20063;-75
2021/04/05 21:17:40;;;;;;;13.50;1.97;;;1.10;98.70;;;;;;10496779;28;20056;-75
2021/04/05 21:22:43;;;;;;;20.70;4.00;;;1.40;99.50;;;;;;10493828;28;20127;-75
2021/04/05 21:27:50;;;;;;;18.55;2.17;;;1.90;99.90;;;;;;10492855;28;20139;-75
2021/04/05 21:32:57;;;;;;;32.73;4.50;;;2.20;99.90;;;;;;10489982;28;20071;-73
2021/04/05 21:38:01;;;;;;;21.25;3.45;;;3.00;99.90;;;;;;10495961;28;20048;-74
2021/04/05 21:43:08;;;;;;;13.38;2.55;;;3.80;99.90;;;;;;10488973;28;20036;-73
2021/04/05 21:48:15;;;;;;;16.07;2.87;;;2.60;99.70;;;;;;10475668;28;20051;-73
2021/04/05 21:53:18;;;;;;;19.17;2.45;;;2.40;99.40;;;;;;10494169;28;20088;-73
2021/04/05 21:58:21;;;;;;;;;;;2.40;99.80;;;;;;10492669;28;20075;-72
2021/04/05 22:03:34;;;;;;;23.58;3.70;;;2.60;99.90;;;;;;10493110;28;20042;-73
2021/04/05 22:08:38;;;;;;;32.63;4.87;;;2.70;99.80;;;;;;10491542;28;20072;-72
2021/04/05 22:13:51;;;;;;;11.60;2.07;;;2.70;99.70;;;;;;10491645;28;20151;-72
2021/04/05 22:18:54;;;;;;;40.33;4.40;;;2.60;99.30;;;;;;10495171;28;20083;-73
2021/04/05 22:23:58;;;;;;;27.67;3.25;;;2.60;98.80;;;;;;10494112;28;21830;-74
2021/04/05 22:29:02;;;;;;;26.83;3.30;;;2.80;98.80;;;;;;10491757;28;20331;-73
2021/04/05 22:34:06;;;;;;;24.10;3.30;;;2.70;98.40;;;;;;10492484;28;20053;-74
2021/04/05 22:39:09;;;;;;;38.53;6.25;;;2.60;98.30;;;;;;10492849;28;20131;-73
2021/04/05 22:44:18;;;;;;;23.30;2.88;;;2.60;98.30;;;;;;10492911;28;20495;-73
2021/04/05 22:49:28;;;;;;;26.77;4.70;;;2.50;98.30;;;;;;10491638;28;20143;-73
2021/04/05 22:54:35;;;;;;;29.42;3.95;;;2.60;98.60;;;;;;10491520;28;20072;-73
2021/04/05 22:59:42;;;;;;;10.48;2.88;;;2.80;98.20;;;;;;10491280;28;20106;-72
2021/04/05 23:04:49;;;;;;;24.48;2.70;;;3.00;97.70;;;;;;10492047;28;20044;-72
2021/04/05 23:09:55;;;;;;;22.83;2.40;;;3.00;95.60;;;;;;10489690;28;20044;-71
2021/04/05 23:15:02;;;;;;;27.25;2.40;;;2.90;95.20;;;;;;10488431;28;20076;-71
2021/04/05 23:20:15;;;;;;;11.18;2.17;;;2.90;95.40;;;;;;10487649;28;20045;-71
2021/04/05 23:25:17;;;;;;;18.35;2.20;;;3.10;95.40;;;;;;10485559;28;20056;-72
2021/04/05 23:30:23;;;;;;;20.08;2.70;;;2.50;94.60;;;;;;10489870;28;20040;-72
2021/04/05 23:35:30;;;;;;;26.17;2.97;;;2.20;95.70;;;;;;10489834;28;20159;-72
2021/04/05 23:40:34;;;;;;;21.75;5.80;;;2.20;96.30;;;;;;10491596;28;20136;-72
2021/04/05 23:45:37;;;;;;;20.95;2.47;;;3.40;96.60;;;;;;10489017;28;20048;-72
2021/04/05 23:50:42;;;;;;;21.10;3.77;;;2.60;95.10;;;;;;10485756;28;20040;-72
2021/04/05 23:55:44;;;;;;;16.17;3.33;;;2.70;95.20;;;;;;10485160;28;20072;-72
